Poestenkill, New York
Current Conditions -  °F | °C
As of 8:33 AM on Saturday 25 Oct 2014 (Local Time) from KALB Reporting Station
Scattered Clouds Scattered Clouds  
Wind Chill: 44°   Ceiling: Unl
Heat Index: 47°   Visibility: 10mi
Dew Point: 43°   Wind: 6mph
Humidity: 86%   Direction: 240°WSW
Pressure: 29.84"   Gusts: NA
Location:  42.69°N, 73.56°W
Report Text: KALB 251233Z 24005KT 10SM SCT022 08/06 A2984 RMK AO2 SCT V BKN T00830061 $
Loading
Personal Weather Stations






























Interactive Weather Map
Tropical Storm Tracking
New forecast layout! Learn more

10-Day Weather Forecast

Advertisements
Track Severe Weather on mobile